createdAt,value
2022-12-03T00:02:14.137Z,100
2022-12-03T00:07:12.364Z,100
2022-12-03T00:12:10.667Z,100
2022-12-03T00:17:08.808Z,100
2022-12-03T00:22:07.546Z,100
2022-12-03T00:27:05.688Z,100
2022-12-03T00:32:04.131Z,100
2022-12-03T00:37:02.744Z,100
2022-12-03T00:42:01.091Z,100
2022-12-03T00:46:59.346Z,100
2022-12-03T00:51:57.514Z,100
2022-12-03T00:56:55.813Z,100
2022-12-03T01:01:53.961Z,100
2022-12-03T01:06:52.187Z,100
2022-12-03T01:11:50.336Z,100
2022-12-03T01:16:48.541Z,100
2022-12-03T01:21:46.580Z,100
2022-12-03T01:26:44.725Z,100
2022-12-03T01:31:43.232Z,100
2022-12-03T01:36:41.382Z,100
2022-12-03T01:41:39.803Z,100
2022-12-03T01:46:37.905Z,100
2022-12-03T01:51:36.146Z,100
2022-12-03T01:56:34.421Z,100
2022-12-03T02:01:32.594Z,100
2022-12-03T02:06:30.730Z,100
2022-12-03T02:11:28.974Z,100
2022-12-03T02:16:27.220Z,100
2022-12-03T02:21:25.419Z,100
2022-12-03T02:26:23.717Z,100
2022-12-03T02:31:21.911Z,100
2022-12-03T02:36:19.998Z,100
2022-12-03T02:41:18.077Z,100
2022-12-03T02:46:16.355Z,100
2022-12-03T02:51:14.551Z,100
2022-12-03T02:56:12.799Z,100
2022-12-03T03:01:11.259Z,100
2022-12-03T03:06:09.439Z,100
2022-12-03T03:11:07.682Z,100
2022-12-03T03:16:05.734Z,100
2022-12-03T03:21:03.923Z,100
2022-12-03T03:26:01.977Z,100
2022-12-03T03:31:00.161Z,100
2022-12-03T03:35:58.230Z,100
2022-12-03T03:40:56.409Z,100
2022-12-03T03:45:54.706Z,100
2022-12-03T03:50:52.859Z,100
2022-12-03T03:55:51.182Z,100
2022-12-03T04:00:49.407Z,100
2022-12-03T04:05:47.903Z,100
2022-12-03T04:10:46.070Z,100
2022-12-03T04:15:44.315Z,100
2022-12-03T04:20:42.478Z,100
2022-12-03T04:25:40.583Z,100
2022-12-03T04:30:38.834Z,100
2022-12-03T04:35:36.990Z,100
2022-12-03T04:40:35.244Z,100
2022-12-03T04:45:33.443Z,100
2022-12-03T04:50:31.437Z,100
2022-12-03T04:55:29.703Z,100
2022-12-03T05:00:28.139Z,100
2022-12-03T05:05:26.279Z,100
2022-12-03T05:10:24.444Z,100
2022-12-03T05:15:22.631Z,100
2022-12-03T05:20:20.927Z,100
2022-12-03T05:25:19.176Z,100
2022-12-03T05:30:17.660Z,100
2022-12-03T05:35:15.817Z,100
2022-12-03T05:40:14.013Z,100
2022-12-03T05:45:12.316Z,100
2022-12-03T05:50:10.634Z,100
2022-12-03T05:55:09.226Z,100
2022-12-03T06:00:07.680Z,100
2022-12-03T06:05:06.131Z,100
2022-12-03T06:10:04.419Z,100
2022-12-03T06:15:02.775Z,100
2022-12-03T06:20:01.001Z,100
2022-12-03T06:25:06.481Z,100
2022-12-03T06:30:00.151Z,100
2022-12-03T06:34:58.240Z,100
2022-12-03T06:39:56.387Z,100
2022-12-03T06:44:54.904Z,100
2022-12-03T07:00:06.375Z,100
2022-12-03T07:05:04.700Z,100
2022-12-03T07:10:03.388Z,100
2022-12-03T07:15:02.142Z,100
2022-12-03T07:20:00.779Z,100
2022-12-03T07:24:59.182Z,100
2022-12-03T07:29:57.552Z,100
2022-12-03T07:34:56.312Z,99.9
2022-12-03T07:39:54.805Z,99.8
2022-12-03T07:44:53.297Z,100
2022-12-03T07:49:51.170Z,99.5
2022-12-03T07:54:49.527Z,98.8
2022-12-03T07:59:47.874Z,98.7
2022-12-03T08:04:46.095Z,99.1
2022-12-03T08:09:44.316Z,99.3
2022-12-03T08:14:42.355Z,99.4
2022-12-03T08:19:41.228Z,99.1
2022-12-03T08:24:39.785Z,98.2
2022-12-03T08:29:38.038Z,97.7
2022-12-03T08:34:36.395Z,98.1
2022-12-03T08:39:34.479Z,97.5
2022-12-03T08:44:32.740Z,98.7
2022-12-03T08:49:30.849Z,97.5
2022-12-03T08:54:29.068Z,97.5
2022-12-03T08:59:27.347Z,97.1
2022-12-03T09:04:25.677Z,96.9
2022-12-03T09:09:23.755Z,96.9
2022-12-03T09:14:21.873Z,97
2022-12-03T09:19:20.398Z,98.5
2022-12-03T09:24:18.871Z,98.8
2022-12-03T09:29:17.502Z,96.6
2022-12-03T09:34:15.903Z,94.9
2022-12-03T09:39:14.775Z,92.7
2022-12-03T09:44:17.366Z,91.8
2022-12-03T09:49:15.698Z,92.1
2022-12-03T09:54:09.418Z,92.7
2022-12-03T09:59:08.267Z,92.3
2022-12-03T10:04:06.772Z,93.2
2022-12-03T10:09:04.837Z,93
2022-12-03T10:14:03.381Z,93.5
2022-12-03T10:19:02.465Z,93.3
2022-12-03T10:24:00.533Z,93.4
2022-12-03T10:28:59.115Z,93
2022-12-03T10:33:57.475Z,93
2022-12-03T10:38:55.775Z,92.7
2022-12-03T10:43:53.849Z,93.7
2022-12-03T10:48:52.198Z,93.2
2022-12-03T10:53:50.674Z,92.2
2022-12-03T10:58:49.257Z,92.7
2022-12-03T11:03:47.424Z,92.2
2022-12-03T11:08:48.266Z,92.4
2022-12-03T11:13:44.566Z,91.5
2022-12-03T11:18:43.018Z,91.8
2022-12-03T11:23:41.414Z,92
2022-12-03T11:28:39.786Z,91.8
2022-12-03T11:33:38.236Z,91
2022-12-03T11:38:36.721Z,91.2
2022-12-03T11:43:35.225Z,90.3
2022-12-03T11:48:33.999Z,89.4
2022-12-03T11:53:32.297Z,90.3
2022-12-03T11:58:30.700Z,90.7
2022-12-03T12:03:28.975Z,90.5
2022-12-03T12:08:26.904Z,91.2
2022-12-03T12:13:25.571Z,90.8
2022-12-03T12:18:24.304Z,89.7
2022-12-03T12:23:22.746Z,91.7
2022-12-03T12:28:21.074Z,91.3
2022-12-03T12:33:19.342Z,90
2022-12-03T12:38:17.606Z,89.4
2022-12-03T12:43:20.423Z,91.9
2022-12-03T12:48:14.621Z,89.8
2022-12-03T12:53:12.957Z,90.4
2022-12-03T12:58:11.673Z,90.7
2022-12-03T13:03:09.899Z,90.2
2022-12-03T13:08:10.419Z,89.7
2022-12-03T13:13:07.172Z,90.6
2022-12-03T13:18:05.269Z,91.2
2022-12-03T13:23:03.572Z,91.5
2022-12-03T13:28:01.868Z,90.6
2022-12-03T13:33:00.375Z,90.8
2022-12-03T13:37:58.779Z,90.5
2022-12-03T13:42:56.848Z,91.1
2022-12-03T13:47:55.202Z,91.4
2022-12-03T13:52:53.580Z,92
2022-12-03T13:57:51.863Z,92.8
2022-12-03T14:02:50.049Z,93.9
2022-12-03T14:07:48.146Z,94.4
2022-12-03T14:12:46.447Z,95
2022-12-03T14:17:44.993Z,95.7
2022-12-03T14:22:43.615Z,96.3
2022-12-03T14:27:41.872Z,97.3
2022-12-03T14:32:40.208Z,97.5
2022-12-03T14:37:38.290Z,98.9
2022-12-03T14:42:36.327Z,99.1
2022-12-03T14:47:34.744Z,99.9
2022-12-03T14:52:33.383Z,100
2022-12-03T14:57:32.019Z,100
2022-12-03T15:02:30.129Z,100
2022-12-03T15:07:28.111Z,100
2022-12-03T15:12:26.249Z,100
2022-12-03T15:17:31.195Z,100
2022-12-03T15:22:22.756Z,100
2022-12-03T15:27:20.762Z,100
2022-12-03T15:32:18.855Z,100
2022-12-03T15:37:17.245Z,100
2022-12-03T15:42:15.260Z,100
2022-12-03T15:47:13.337Z,100
2022-12-03T15:52:11.542Z,100
2022-12-03T15:57:09.617Z,100
2022-12-03T16:02:08.410Z,100
2022-12-03T16:07:06.588Z,100
2022-12-03T16:12:05.132Z,100
2022-12-03T16:17:03.574Z,100
2022-12-03T16:22:01.536Z,100
2022-12-03T16:26:59.730Z,100
2022-12-03T16:31:57.857Z,100
2022-12-03T16:36:56.257Z,100
2022-12-03T16:41:54.314Z,100
2022-12-03T16:46:52.585Z,100
2022-12-03T16:51:51.017Z,100
2022-12-03T16:56:49.252Z,100
2022-12-03T17:01:47.542Z,100
2022-12-03T17:06:46.021Z,100
2022-12-03T17:11:44.306Z,100
2022-12-03T17:16:42.834Z,100
2022-12-03T17:21:41.091Z,100
2022-12-03T17:26:39.559Z,100
2022-12-03T17:31:41.808Z,100
2022-12-03T17:36:36.211Z,100
2022-12-03T17:41:34.625Z,100
2022-12-03T17:46:33.460Z,100
2022-12-03T17:51:31.609Z,100
2022-12-03T17:56:29.813Z,100
2022-12-03T18:01:27.969Z,100
2022-12-03T18:06:26.693Z,100
2022-12-03T18:11:25.279Z,100
2022-12-03T18:16:23.739Z,100
2022-12-03T18:21:21.936Z,100
2022-12-03T18:26:20.191Z,100
2022-12-03T18:31:18.478Z,100
2022-12-03T18:36:16.880Z,100
2022-12-03T18:41:15.769Z,100
2022-12-03T18:46:25.324Z,100
2022-12-03T18:51:13.115Z,100
2022-12-03T18:56:11.509Z,100
2022-12-03T19:01:10.107Z,100
2022-12-03T19:06:08.553Z,100
2022-12-03T19:11:07.000Z,100
2022-12-03T19:16:05.404Z,100
2022-12-03T19:21:03.911Z,100
2022-12-03T19:26:03.835Z,100
2022-12-03T19:31:02.070Z,100
2022-12-03T19:36:00.488Z,100
2022-12-03T19:40:58.871Z,100
2022-12-03T19:45:56.920Z,100
2022-12-03T19:51:13.473Z,100
2022-12-03T19:55:53.741Z,100
2022-12-03T20:00:52.011Z,100
2022-12-03T20:05:50.261Z,100
2022-12-03T20:10:48.574Z,100
2022-12-03T20:15:47.129Z,100
2022-12-03T20:20:45.578Z,100
2022-12-03T20:25:43.931Z,100
2022-12-03T20:30:42.301Z,100
2022-12-03T20:35:40.459Z,100
2022-12-03T20:40:39.058Z,100
2022-12-03T20:45:37.510Z,100
2022-12-03T20:50:35.808Z,100
2022-12-03T20:55:34.336Z,100
2022-12-03T21:00:32.608Z,100
2022-12-03T21:05:31.040Z,100
2022-12-03T21:10:29.251Z,100
2022-12-03T21:15:28.120Z,100
2022-12-03T21:20:26.725Z,100
2022-12-03T21:25:24.972Z,100
2022-12-03T21:30:23.400Z,100
2022-12-03T21:35:21.467Z,100
2022-12-03T21:40:19.598Z,100
2022-12-03T21:45:18.169Z,100
2022-12-03T21:50:16.565Z,100
2022-12-03T21:55:15.173Z,100
2022-12-03T22:00:13.489Z,100
2022-12-03T22:05:12.416Z,100
2022-12-03T22:10:10.880Z,100
2022-12-03T22:15:12.198Z,100
2022-12-03T22:20:07.627Z,100
2022-12-03T22:25:06.102Z,100
2022-12-03T22:30:04.304Z,100
2022-12-03T22:35:02.727Z,100
2022-12-03T22:40:01.196Z,100
2022-12-03T22:44:59.638Z,100
2022-12-03T22:49:57.887Z,100
2022-12-03T22:54:56.109Z,100
2022-12-03T22:59:54.669Z,100
2022-12-03T23:04:52.666Z,100
2022-12-03T23:09:50.972Z,100
2022-12-03T23:14:49.403Z,100
2022-12-03T23:19:47.722Z,100
2022-12-03T23:24:45.951Z,100
2022-12-03T23:29:44.427Z,100
2022-12-03T23:34:42.570Z,100
2022-12-03T23:39:40.799Z,100
2022-12-03T23:44:39.031Z,100
2022-12-03T23:49:37.439Z,100
2022-12-03T23:54:35.601Z,100
2022-12-03T23:59:33.920Z,100
